createdAt,value
2022-10-27T00:00:07.364Z,101945.00
2022-10-27T00:02:33.905Z,101943.00
2022-10-27T00:05:00.471Z,101955.00
2022-10-27T00:07:26.997Z,101952.00
2022-10-27T00:09:53.593Z,101958.00
2022-10-27T00:12:20.172Z,101945.00
2022-10-27T00:14:46.735Z,101967.00
2022-10-27T00:17:13.271Z,101964.00
2022-10-27T00:19:39.850Z,101960.00
2022-10-27T00:22:06.400Z,101962.00
2022-10-27T00:24:32.937Z,101963.00
2022-10-27T00:26:59.479Z,101966.00
2022-10-27T00:29:26.066Z,101963.00
2022-10-27T00:31:52.610Z,101962.00
2022-10-27T00:34:19.115Z,101960.00
2022-10-27T00:36:45.650Z,101965.00
2022-10-27T00:39:12.186Z,101960.00
2022-10-27T00:41:41.643Z,101949.00
2022-10-27T00:44:40.182Z,101956.00
2022-10-27T00:47:09.537Z,101951.00
2022-10-27T00:49:47.864Z,101948.00
2022-10-27T00:52:41.383Z,101951.00
2022-10-27T00:55:15.631Z,101947.00
2022-10-27T00:57:46.482Z,101940.00
2022-10-27T01:00:13.656Z,101943.00
2022-10-27T01:02:40.241Z,101940.00
2022-10-27T01:05:17.632Z,101943.00
2022-10-27T01:07:45.900Z,101935.00
2022-10-27T01:10:13.370Z,101938.00
2022-10-27T01:12:40.240Z,101932.00
2022-10-27T01:15:07.813Z,101934.00
2022-10-27T01:17:52.497Z,101931.00
2022-10-27T01:20:37.125Z,101935.00
2022-10-27T01:23:28.669Z,101935.00
2022-10-27T01:26:19.508Z,101928.00
2022-10-27T01:29:10.188Z,101924.00
2022-10-27T01:31:45.853Z,101933.00
2022-10-27T01:34:33.504Z,101929.00
2022-10-27T01:37:21.931Z,101938.00
2022-10-27T01:40:16.254Z,101924.00
2022-10-27T01:42:49.538Z,101930.00
2022-10-27T01:45:21.499Z,101918.00
2022-10-27T01:47:48.911Z,101920.00
2022-10-27T01:50:26.654Z,101914.00
2022-10-27T01:52:53.443Z,101912.00
2022-10-27T01:55:44.658Z,101910.00
2022-10-27T01:58:14.114Z,101903.00
2022-10-27T02:00:50.436Z,101904.00
2022-10-27T02:03:23.367Z,101908.00
2022-10-27T02:06:09.816Z,101906.00
2022-10-27T02:08:44.545Z,101905.00
2022-10-27T02:11:12.228Z,101903.00
2022-10-27T02:13:42.628Z,101908.00
2022-10-27T02:16:14.151Z,101895.00
2022-10-27T02:18:52.495Z,101889.00
2022-10-27T02:21:19.771Z,101892.00
2022-10-27T02:23:46.461Z,101895.00
2022-10-27T02:26:35.852Z,101893.00
2022-10-27T02:29:06.311Z,101887.00
2022-10-27T02:31:43.395Z,101884.00
2022-10-27T02:34:10.982Z,101892.00
2022-10-27T02:36:37.679Z,101891.00
2022-10-27T02:39:04.219Z,101898.00
2022-10-27T02:41:30.750Z,101895.00
2022-10-27T02:43:57.312Z,101895.00
2022-10-27T02:46:24.024Z,101892.00
2022-10-27T02:48:50.531Z,101898.00
2022-10-27T02:51:17.071Z,101899.00
2022-10-27T02:53:43.595Z,101893.00
2022-10-27T02:56:10.354Z,101892.00
2022-10-27T02:58:36.967Z,101893.00
2022-10-27T03:01:03.705Z,101901.00
2022-10-27T03:03:30.367Z,101903.00
2022-10-27T03:05:56.900Z,101899.00
2022-10-27T03:08:23.567Z,101896.00
2022-10-27T03:10:50.192Z,101898.00
2022-10-27T03:13:16.831Z,101896.00
2022-10-27T03:15:46.676Z,101889.00
2022-10-27T03:18:13.836Z,101893.00
2022-10-27T03:20:40.363Z,101887.00
2022-10-27T03:23:06.944Z,101896.00
2022-10-27T03:25:33.610Z,101881.00
2022-10-27T03:28:00.104Z,101887.00
2022-10-27T03:30:26.683Z,101883.00
2022-10-27T03:32:53.468Z,101885.00
2022-10-27T03:35:21.054Z,101886.00
2022-10-27T03:37:55.928Z,101882.00
2022-10-27T03:40:22.998Z,101881.00
2022-10-27T03:42:49.707Z,101881.00
2022-10-27T03:45:16.669Z,101881.00
2022-10-27T03:47:43.262Z,101877.00
2022-10-27T03:50:09.952Z,101875.00
2022-10-27T03:52:36.528Z,101875.00
2022-10-27T03:55:03.198Z,101881.00
2022-10-27T03:57:29.698Z,101878.00
2022-10-27T03:59:56.243Z,101885.00
2022-10-27T04:02:22.792Z,101883.00
2022-10-27T04:04:49.384Z,101882.00
2022-10-27T04:07:15.920Z,101882.00
2022-10-27T04:09:42.462Z,101874.00
2022-10-27T04:12:09.078Z,101878.00
2022-10-27T04:14:35.900Z,101880.00
2022-10-27T04:17:02.556Z,101880.00
2022-10-27T04:19:29.070Z,101878.00
2022-10-27T04:21:55.637Z,101882.00
2022-10-27T04:24:22.145Z,101882.00
2022-10-27T04:26:48.704Z,101876.00
2022-10-27T04:29:15.209Z,101869.00
2022-10-27T04:31:41.743Z,101884.00
2022-10-27T04:34:08.393Z,101877.00
2022-10-27T04:36:34.957Z,101877.00
2022-10-27T04:39:01.782Z,101865.00
2022-10-27T04:41:28.308Z,101861.00
2022-10-27T04:43:54.870Z,101857.00
2022-10-27T04:46:21.791Z,101861.00
2022-10-27T04:48:48.370Z,101859.00
2022-10-27T04:51:18.057Z,101850.00
2022-10-27T04:53:47.191Z,101849.00
2022-10-27T04:56:13.819Z,101846.00
2022-10-27T04:58:40.492Z,101850.00
2022-10-27T05:01:08.683Z,101850.00
2022-10-27T05:03:35.395Z,101839.00
2022-10-27T05:06:02.233Z,101831.00
2022-10-27T05:08:28.795Z,101825.00
2022-10-27T05:10:55.376Z,101831.00
2022-10-27T05:13:22.128Z,101826.00
2022-10-27T05:15:48.776Z,101828.00
2022-10-27T05:18:15.524Z,101824.00
2022-10-27T05:20:42.121Z,101812.00
2022-10-27T05:23:08.699Z,101805.00
2022-10-27T05:25:35.279Z,101810.00
2022-10-27T05:28:06.716Z,101809.00
2022-10-27T05:30:33.932Z,101802.00
2022-10-27T05:33:00.596Z,101791.00
2022-10-27T05:35:27.183Z,101786.00
2022-10-27T05:37:53.920Z,101793.00
2022-10-27T05:40:20.571Z,101800.00
2022-10-27T05:42:55.182Z,101800.00
2022-10-27T05:45:23.722Z,101792.00
2022-10-27T05:47:57.527Z,101801.00
2022-10-27T05:50:24.204Z,101805.00
2022-10-27T05:52:50.991Z,101810.00
2022-10-27T05:55:17.688Z,101805.00
2022-10-27T05:58:01.616Z,101803.00
2022-10-27T06:00:34.852Z,101806.00
2022-10-27T06:03:02.843Z,101801.00
2022-10-27T06:05:31.148Z,101806.00
2022-10-27T06:07:58.058Z,101803.00
2022-10-27T06:10:25.520Z,101797.00
2022-10-27T06:12:52.348Z,101798.00
2022-10-27T06:15:18.915Z,101793.00
2022-10-27T06:17:45.435Z,101791.00
2022-10-27T06:20:12.206Z,101787.00
2022-10-27T06:22:38.737Z,101790.00
2022-10-27T06:25:05.731Z,101784.00
2022-10-27T06:27:32.281Z,101784.00
2022-10-27T06:29:58.853Z,101777.00
2022-10-27T06:34:56.894Z,101782.00
2022-10-27T06:37:23.494Z,101771.00
2022-10-27T06:39:50.062Z,101774.00
2022-10-27T06:42:16.606Z,101767.00
2022-10-27T06:44:43.460Z,101768.00
2022-10-27T06:47:10.070Z,101751.00
2022-10-27T06:49:36.581Z,101746.00
2022-10-27T06:52:03.123Z,101745.00
2022-10-27T06:54:29.719Z,101750.00
2022-10-27T06:56:56.256Z,101755.00
2022-10-27T06:59:22.880Z,101747.00
2022-10-27T07:01:49.540Z,101744.00
2022-10-27T07:04:16.164Z,101743.00
2022-10-27T07:06:42.758Z,101751.00
2022-10-27T07:09:10.070Z,101746.00
2022-10-27T07:11:37.291Z,101738.00
2022-10-27T07:14:04.103Z,101744.00
2022-10-27T07:16:34.052Z,101751.00
2022-10-27T07:19:02.018Z,101757.00
2022-10-27T07:21:29.265Z,101751.00
2022-10-27T07:23:55.918Z,101769.00
2022-10-27T07:26:22.664Z,101758.00
2022-10-27T07:28:49.301Z,101772.00
2022-10-27T07:31:15.904Z,101761.00
2022-10-27T07:33:42.429Z,101756.00
2022-10-27T07:36:09.017Z,101755.00
2022-10-27T07:38:36.212Z,101746.00
2022-10-27T07:41:02.752Z,101737.00
2022-10-27T07:43:29.297Z,101748.00
2022-10-27T07:45:55.883Z,101740.00
2022-10-27T07:48:22.536Z,101738.00
2022-10-27T07:53:20.618Z,101737.00
2022-10-27T07:55:47.284Z,101739.00
2022-10-27T07:58:16.039Z,101742.00
2022-10-27T08:00:47.557Z,101748.00
2022-10-27T08:03:19.700Z,101738.00
2022-10-27T08:05:46.327Z,101728.00
2022-10-27T08:08:14.447Z,101717.00
2022-10-27T08:10:42.656Z,101714.00
2022-10-27T08:13:10.601Z,101722.00
2022-10-27T08:15:38.617Z,101713.00
2022-10-27T08:18:06.265Z,101715.00
2022-10-27T08:20:35.245Z,101710.00
2022-10-27T08:23:05.079Z,101711.00
2022-10-27T08:25:32.017Z,101715.00
2022-10-27T08:27:59.193Z,101699.00
2022-10-27T08:30:33.611Z,101696.00
2022-10-27T08:33:03.445Z,101694.00
2022-10-27T08:35:31.734Z,101693.00
2022-10-27T08:38:11.245Z,101686.00
2022-10-27T08:43:21.569Z,101689.00
2022-10-27T08:45:59.326Z,101695.00
2022-10-27T08:48:27.197Z,101691.00
2022-10-27T08:50:54.009Z,101688.00
2022-10-27T08:53:28.791Z,101700.00
2022-10-27T08:56:03.291Z,101695.00
2022-10-27T09:01:22.568Z,101683.00
2022-10-27T09:03:55.035Z,101679.00
2022-10-27T09:06:27.197Z,101675.00
2022-10-27T09:09:08.265Z,101676.00
2022-10-27T09:11:43.616Z,101679.00
2022-10-27T09:14:13.125Z,101688.00
2022-10-27T09:16:48.029Z,101682.00
2022-10-27T09:19:29.175Z,101685.00
2022-10-27T09:21:55.955Z,101688.00
2022-10-27T09:24:26.352Z,101689.00
2022-10-27T09:26:53.554Z,101688.00
2022-10-27T09:29:22.519Z,101685.00
2022-10-27T09:31:55.931Z,101677.00
2022-10-27T09:34:40.258Z,101683.00
2022-10-27T09:37:15.235Z,101697.00
2022-10-27T09:39:46.481Z,101707.00
2022-10-27T09:42:13.054Z,101718.00
2022-10-27T09:44:39.986Z,101751.00
2022-10-27T09:47:06.675Z,101765.00
2022-10-27T09:49:39.301Z,101746.00
2022-10-27T09:52:42.521Z,101747.00
2022-10-27T09:55:09.563Z,101744.00
2022-10-27T09:57:39.430Z,101731.00
2022-10-27T10:00:16.418Z,101730.00
2022-10-27T10:05:34.172Z,101721.00
2022-10-27T10:08:22.613Z,101701.00
2022-10-27T10:11:04.502Z,101694.00
2022-10-27T10:13:33.078Z,101689.00
2022-10-27T10:16:07.738Z,101682.00
2022-10-27T10:18:38.757Z,101685.00
2022-10-27T10:21:08.869Z,101694.00
2022-10-27T10:23:39.869Z,101701.00
2022-10-27T10:26:17.431Z,101687.00
2022-10-27T10:28:44.804Z,101698.00
2022-10-27T10:31:15.111Z,101696.00
2022-10-27T10:33:45.455Z,101706.00
2022-10-27T10:36:37.838Z,101697.00
2022-10-27T10:39:22.975Z,101717.00
2022-10-27T10:42:15.146Z,101697.00
2022-10-27T10:44:42.121Z,101690.00
2022-10-27T10:47:26.809Z,101684.00
2022-10-27T10:49:57.300Z,101699.00
2022-10-27T10:52:30.125Z,101706.00
2022-10-27T10:54:56.691Z,101707.00
2022-10-27T10:57:36.969Z,101702.00
2022-10-27T11:00:06.417Z,101691.00
2022-10-27T11:02:34.832Z,101692.00
2022-10-27T11:05:19.520Z,101691.00
2022-10-27T11:07:46.761Z,101697.00
2022-10-27T11:10:16.353Z,101694.00
2022-10-27T11:13:14.478Z,101693.00
2022-10-27T11:15:43.950Z,101696.00
2022-10-27T11:18:22.257Z,101699.00
2022-10-27T11:21:24.113Z,101683.00
2022-10-27T11:23:58.432Z,101682.00
2022-10-27T11:26:34.268Z,101697.00
2022-10-27T11:29:35.309Z,101683.00
2022-10-27T11:32:15.473Z,101686.00
2022-10-27T11:34:57.226Z,101702.00
2022-10-27T11:38:04.044Z,101699.00
2022-10-27T11:40:50.433Z,101694.00
2022-10-27T11:43:28.313Z,101698.00
2022-10-27T11:46:02.325Z,101698.00
2022-10-27T11:48:39.771Z,101697.00
2022-10-27T11:51:18.402Z,101686.00
2022-10-27T11:53:45.070Z,101686.00
2022-10-27T11:56:17.637Z,101686.00
2022-10-27T11:59:20.984Z,101683.00
2022-10-27T12:02:13.285Z,101685.00
2022-10-27T12:05:19.820Z,101684.00
2022-10-27T12:08:04.222Z,101691.00
2022-10-27T12:10:43.867Z,101690.00
2022-10-27T12:13:24.570Z,101687.00
2022-10-27T12:16:00.876Z,101680.00
2022-10-27T12:18:59.126Z,101677.00
2022-10-27T12:21:47.560Z,101678.00
2022-10-27T12:24:39.836Z,101674.00
2022-10-27T12:27:15.316Z,101676.00
2022-10-27T12:29:48.494Z,101674.00
2022-10-27T12:32:25.306Z,101682.00
2022-10-27T12:35:18.916Z,101683.00
2022-10-27T12:37:50.456Z,101687.00
2022-10-27T12:40:29.999Z,101683.00
2022-10-27T12:43:28.589Z,101685.00
2022-10-27T12:46:21.253Z,101679.00
2022-10-27T12:49:11.989Z,101679.00
2022-10-27T12:52:12.048Z,101674.00
2022-10-27T12:55:12.414Z,101667.00
2022-10-27T12:58:13.422Z,101678.00
2022-10-27T13:00:56.022Z,101684.00
2022-10-27T13:03:31.504Z,101679.00
2022-10-27T13:06:11.026Z,101687.00
2022-10-27T13:08:56.314Z,101681.00
2022-10-27T13:11:46.309Z,101687.00
2022-10-27T13:14:27.772Z,101688.00
2022-10-27T13:17:12.839Z,101682.00
2022-10-27T13:19:52.243Z,101681.00
2022-10-27T13:22:30.946Z,101686.00
2022-10-27T13:25:19.730Z,101685.00
2022-10-27T13:27:55.868Z,101680.00
2022-10-27T13:30:24.601Z,101680.00
2022-10-27T13:32:53.557Z,101676.00
2022-10-27T13:35:20.766Z,101679.00
2022-10-27T13:38:19.006Z,101682.00
2022-10-27T13:40:45.941Z,101685.00
2022-10-27T13:43:21.778Z,101685.00
2022-10-27T13:45:51.079Z,101688.00
2022-10-27T13:48:17.602Z,101688.00
2022-10-27T13:50:58.753Z,101687.00
2022-10-27T13:53:28.350Z,101682.00
2022-10-27T13:56:00.009Z,101673.00
2022-10-27T13:58:46.335Z,101674.00
2022-10-27T14:01:35.512Z,101670.00
2022-10-27T14:04:21.603Z,101675.00
2022-10-27T14:06:50.644Z,101680.00
2022-10-27T14:09:26.851Z,101672.00
2022-10-27T14:11:56.450Z,101675.00
2022-10-27T14:14:24.955Z,101681.00
2022-10-27T14:16:52.610Z,101681.00
2022-10-27T14:19:25.019Z,101690.00
2022-10-27T14:21:56.255Z,101685.00
2022-10-27T14:24:31.091Z,101682.00
2022-10-27T14:26:59.008Z,101682.00
2022-10-27T14:29:25.622Z,101685.00
2022-10-27T14:31:52.481Z,101679.00
2022-10-27T14:34:23.155Z,101681.00
2022-10-27T14:36:51.123Z,101685.00
2022-10-27T14:39:24.026Z,101682.00
2022-10-27T14:41:51.906Z,101682.00
2022-10-27T14:44:26.172Z,101681.00
2022-10-27T14:46:57.230Z,101687.00
2022-10-27T14:49:34.629Z,101683.00
2022-10-27T14:52:06.012Z,101686.00
2022-10-27T14:54:32.843Z,101681.00
2022-10-27T14:57:37.174Z,101691.00
2022-10-27T15:00:42.447Z,101690.00
2022-10-27T15:03:09.463Z,101689.00
2022-10-27T15:05:46.077Z,101703.00
2022-10-27T15:08:17.523Z,101703.00
2022-10-27T15:10:47.170Z,101694.00
2022-10-27T15:13:18.436Z,101701.00
2022-10-27T15:15:47.782Z,101712.00
2022-10-27T15:18:30.979Z,101704.00
2022-10-27T15:20:58.723Z,101697.00
2022-10-27T15:23:26.183Z,101706.00
2022-10-27T15:25:58.429Z,101699.00
2022-10-27T15:28:29.742Z,101696.00
2022-10-27T15:30:56.713Z,101697.00
2022-10-27T15:33:29.103Z,101706.00
2022-10-27T15:36:14.739Z,101699.00
2022-10-27T15:38:42.937Z,101697.00
2022-10-27T15:41:20.423Z,101696.00
2022-10-27T15:43:53.618Z,101696.00
2022-10-27T15:46:32.416Z,101691.00
2022-10-27T15:49:01.929Z,101696.00
2022-10-27T15:51:59.642Z,101699.00
2022-10-27T15:54:34.690Z,101694.00
2022-10-27T15:57:03.211Z,101700.00
2022-10-27T15:59:31.592Z,101696.00
2022-10-27T16:02:22.542Z,101696.00
2022-10-27T16:04:50.182Z,101698.00
2022-10-27T16:07:16.832Z,101697.00
2022-10-27T16:09:45.295Z,101693.00
2022-10-27T16:12:22.292Z,101680.00
2022-10-27T16:14:54.528Z,101679.00
2022-10-27T16:17:22.735Z,101677.00
2022-10-27T16:19:50.044Z,101680.00
2022-10-27T16:22:19.631Z,101672.00
2022-10-27T16:24:46.678Z,101669.00
2022-10-27T16:27:19.718Z,101665.00
2022-10-27T16:29:48.543Z,101670.00
2022-10-27T16:32:15.070Z,101673.00
2022-10-27T16:34:41.565Z,101673.00
2022-10-27T16:37:30.236Z,101681.00
2022-10-27T16:39:57.122Z,101678.00
2022-10-27T16:42:25.341Z,101673.00
2022-10-27T16:44:51.904Z,101671.00
2022-10-27T16:47:22.378Z,101666.00
2022-10-27T16:49:49.242Z,101668.00
2022-10-27T16:52:16.152Z,101668.00
2022-10-27T16:54:42.854Z,101670.00
2022-10-27T16:57:10.045Z,101672.00
2022-10-27T16:59:36.712Z,101679.00
2022-10-27T17:02:03.385Z,101686.00
2022-10-27T17:04:30.036Z,101690.00
2022-10-27T17:06:56.641Z,101691.00
2022-10-27T17:09:23.215Z,101690.00
2022-10-27T17:11:51.624Z,101691.00
2022-10-27T17:14:18.253Z,101693.00
2022-10-27T17:16:44.931Z,101690.00
2022-10-27T17:19:11.497Z,101682.00
2022-10-27T17:21:38.005Z,101681.00
2022-10-27T17:24:04.875Z,101677.00
2022-10-27T17:26:32.507Z,101681.00
2022-10-27T17:28:59.923Z,101678.00
2022-10-27T17:31:27.534Z,101673.00
2022-10-27T17:33:59.772Z,101674.00
2022-10-27T17:36:27.325Z,101682.00
2022-10-27T17:38:54.297Z,101688.00
2022-10-27T17:41:20.918Z,101682.00
2022-10-27T17:43:47.800Z,101687.00
2022-10-27T17:46:19.205Z,101693.00
2022-10-27T17:48:51.862Z,101700.00
2022-10-27T17:51:21.460Z,101696.00
2022-10-27T17:53:48.813Z,101701.00
2022-10-27T17:56:20.948Z,101699.00
2022-10-27T17:58:48.609Z,101694.00
2022-10-27T18:01:18.351Z,101685.00
2022-10-27T18:03:47.256Z,101682.00
2022-10-27T18:06:16.005Z,101680.00
2022-10-27T18:08:43.490Z,101682.00
2022-10-27T18:11:11.505Z,101668.00
2022-10-27T18:13:40.379Z,101667.00
2022-10-27T18:16:09.329Z,101677.00
2022-10-27T18:18:36.671Z,101672.00
2022-10-27T18:21:08.836Z,101663.00
2022-10-27T18:23:36.412Z,101665.00
2022-10-27T18:26:07.995Z,101670.00
2022-10-27T18:31:09.963Z,101679.00
2022-10-27T18:33:36.668Z,101668.00
2022-10-27T18:36:12.422Z,101664.00
2022-10-27T18:38:39.050Z,101661.00
2022-10-27T18:41:08.883Z,101670.00
2022-10-27T18:43:35.577Z,101681.00
2022-10-27T18:46:07.018Z,101670.00
2022-10-27T18:48:36.166Z,101680.00
2022-10-27T18:51:05.522Z,101661.00
2022-10-27T18:53:32.538Z,101669.00
2022-10-27T18:56:04.950Z,101665.00
2022-10-27T18:58:32.195Z,101667.00
2022-10-27T19:01:13.070Z,101663.00
2022-10-27T19:03:41.035Z,101662.00
2022-10-27T19:06:09.788Z,101666.00
2022-10-27T19:08:36.759Z,101665.00
2022-10-27T19:11:04.491Z,101674.00
2022-10-27T19:13:31.474Z,101666.00
2022-10-27T19:16:06.452Z,101669.00
2022-10-27T19:18:33.457Z,101675.00
2022-10-27T19:21:02.003Z,101672.00
2022-10-27T19:23:29.037Z,101678.00
2022-10-27T19:26:13.419Z,101678.00
2022-10-27T19:28:41.402Z,101680.00
2022-10-27T19:31:14.490Z,101668.00
2022-10-27T19:33:44.023Z,101672.00
2022-10-27T19:36:13.628Z,101670.00
2022-10-27T19:38:40.813Z,101671.00
2022-10-27T19:41:17.227Z,101667.00
2022-10-27T19:43:47.207Z,101674.00
2022-10-27T19:46:17.569Z,101674.00
2022-10-27T19:48:44.374Z,101668.00
2022-10-27T19:51:15.511Z,101663.00
2022-10-27T19:53:43.875Z,101665.00
2022-10-27T19:56:11.189Z,101655.00
2022-10-27T19:58:37.851Z,101654.00
2022-10-27T20:01:30.533Z,101649.00
2022-10-27T20:04:03.209Z,101654.00
2022-10-27T20:06:29.959Z,101656.00
2022-10-27T20:08:56.764Z,101658.00
2022-10-27T20:11:26.169Z,101646.00
2022-10-27T20:13:55.432Z,101653.00
2022-10-27T20:16:25.810Z,101659.00
2022-10-27T20:18:53.146Z,101665.00
2022-10-27T20:21:20.577Z,101660.00
2022-10-27T20:23:47.345Z,101669.00
2022-10-27T20:26:30.897Z,101668.00
2022-10-27T20:29:01.409Z,101667.00
2022-10-27T20:31:28.917Z,101659.00
2022-10-27T20:33:56.231Z,101669.00
2022-10-27T20:36:23.429Z,101660.00
2022-10-27T20:38:50.342Z,101662.00
2022-10-27T20:41:20.231Z,101658.00
2022-10-27T20:43:47.126Z,101657.00
2022-10-27T20:46:13.926Z,101657.00
2022-10-27T20:48:43.303Z,101669.00
2022-10-27T20:51:15.204Z,101669.00
2022-10-27T20:53:41.923Z,101658.00
2022-10-27T20:56:15.600Z,101665.00
2022-10-27T20:58:42.187Z,101662.00
2022-10-27T21:01:17.755Z,101665.00
2022-10-27T21:03:44.365Z,101661.00
2022-10-27T21:06:10.911Z,101662.00
2022-10-27T21:08:37.515Z,101657.00
2022-10-27T21:11:04.559Z,101659.00
2022-10-27T21:13:31.105Z,101648.00
2022-10-27T21:15:59.486Z,101649.00
2022-10-27T21:18:26.910Z,101647.00
2022-10-27T21:20:53.465Z,101650.00
2022-10-27T21:23:20.058Z,101645.00
2022-10-27T21:25:46.773Z,101641.00
2022-10-27T21:28:13.651Z,101640.00
2022-10-27T21:30:40.226Z,101638.00
2022-10-27T21:33:06.761Z,101642.00
2022-10-27T21:35:33.301Z,101634.00
2022-10-27T21:38:01.085Z,101639.00
2022-10-27T21:40:27.706Z,101636.00
2022-10-27T21:42:57.377Z,101632.00
2022-10-27T21:45:24.107Z,101631.00
2022-10-27T21:47:50.932Z,101633.00
2022-10-27T21:50:17.783Z,101629.00
2022-10-27T21:52:44.480Z,101631.00
2022-10-27T21:55:11.060Z,101626.00
2022-10-27T21:57:37.563Z,101630.00
2022-10-27T22:00:05.476Z,101622.00
2022-10-27T22:02:32.012Z,101627.00
2022-10-27T22:04:58.606Z,101627.00
2022-10-27T22:07:25.572Z,101626.00
2022-10-27T22:09:52.132Z,101624.00
2022-10-27T22:12:18.646Z,101623.00
2022-10-27T22:14:45.167Z,101627.00
2022-10-27T22:17:11.733Z,101625.00
2022-10-27T22:19:38.408Z,101625.00
2022-10-27T22:22:04.997Z,101619.00
2022-10-27T22:24:31.573Z,101612.00
2022-10-27T22:26:58.081Z,101606.00
2022-10-27T22:29:24.640Z,101599.00
2022-10-27T22:31:51.227Z,101607.00
2022-10-27T22:34:17.877Z,101594.00
2022-10-27T22:36:44.407Z,101599.00
2022-10-27T22:39:12.392Z,101595.00
2022-10-27T22:41:39.011Z,101601.00
2022-10-27T22:44:06.329Z,101597.00
2022-10-27T22:46:34.259Z,101599.00
2022-10-27T22:49:00.944Z,101597.00
2022-10-27T22:51:28.532Z,101599.00
2022-10-27T22:53:56.706Z,101597.00
2022-10-27T22:56:27.182Z,101599.00
2022-10-27T22:58:55.814Z,101586.00
2022-10-27T23:01:31.634Z,101587.00
2022-10-27T23:04:00.888Z,101588.00
2022-10-27T23:06:29.902Z,101588.00
2022-10-27T23:08:58.735Z,101596.00
2022-10-27T23:11:28.866Z,101592.00
2022-10-27T23:13:55.404Z,101591.00
2022-10-27T23:16:22.085Z,101596.00
2022-10-27T23:18:48.658Z,101603.00
2022-10-27T23:21:16.431Z,101603.00
2022-10-27T23:23:43.539Z,101603.00
2022-10-27T23:26:21.086Z,101607.00
2022-10-27T23:28:52.286Z,101602.00
2022-10-27T23:31:19.615Z,101597.00
2022-10-27T23:33:46.842Z,101601.00
2022-10-27T23:36:13.686Z,101600.00
2022-10-27T23:38:40.262Z,101597.00
2022-10-27T23:41:06.821Z,101592.00
2022-10-27T23:43:33.353Z,101587.00
2022-10-27T23:46:07.678Z,101585.00
2022-10-27T23:48:35.427Z,101581.00
2022-10-27T23:51:02.760Z,101585.00
2022-10-27T23:53:30.746Z,101578.00
2022-10-27T23:56:02.509Z,101582.00
2022-10-27T23:58:30.610Z,101583.00
